createdAt,value
2023-04-12T00:00:21.291Z,73.45
2023-04-12T00:02:54.423Z,74.79
2023-04-12T00:05:27.465Z,74.13
2023-04-12T00:07:56.426Z,73.90
2023-04-12T00:10:26.204Z,73.50
2023-04-12T00:12:54.963Z,73.12
2023-04-12T00:15:23.712Z,72.89
2023-04-12T00:17:52.486Z,74.11
2023-04-12T00:20:21.338Z,74.59
2023-04-12T00:22:52.085Z,74.61
2023-04-12T00:25:21.067Z,75.10
2023-04-12T00:27:49.883Z,74.81
2023-04-12T00:30:18.750Z,74.05
2023-04-12T00:32:47.521Z,74.17
2023-04-12T00:35:16.209Z,74.16
2023-04-12T00:38:12.650Z,74.33
2023-04-12T00:40:43.793Z,74.67
2023-04-12T00:43:15.640Z,74.29
2023-04-12T00:45:44.895Z,74.15
2023-04-12T00:48:13.940Z,73.65
2023-04-12T00:50:44.825Z,73.40
2023-04-12T00:53:17.772Z,73.47
2023-04-12T00:55:47.667Z,75.59
2023-04-12T00:58:16.605Z,76.18
2023-04-12T01:00:50.431Z,77.37
2023-04-12T01:03:23.178Z,77.39
2023-04-12T01:06:10.656Z,77.07
2023-04-12T01:08:55.253Z,75.78
2023-04-12T01:11:33.858Z,74.88
2023-04-12T01:14:12.794Z,74.44
2023-04-12T01:16:51.216Z,74.01
2023-04-12T01:19:57.862Z,73.49
2023-04-12T01:23:00.815Z,74.70
2023-04-12T01:25:46.011Z,74.04
2023-04-12T01:28:23.835Z,75.11
2023-04-12T01:30:53.829Z,75.60
2023-04-12T01:33:31.352Z,75.79
2023-04-12T01:36:04.493Z,74.75
2023-04-12T01:38:36.189Z,74.13
2023-04-12T01:41:08.531Z,74.34
2023-04-12T01:43:44.044Z,74.77
2023-04-12T01:46:15.075Z,74.57
2023-04-12T01:48:51.335Z,74.09
2023-04-12T01:51:33.033Z,73.88
2023-04-12T01:54:11.734Z,74.80
2023-04-12T01:56:44.982Z,75.98
2023-04-12T01:59:18.703Z,75.81
2023-04-12T02:01:49.012Z,76.89
2023-04-12T02:04:19.769Z,75.60
2023-04-12T02:06:49.861Z,75.28
2023-04-12T02:09:18.559Z,75.54
2023-04-12T02:11:49.847Z,75.47
2023-04-12T02:14:20.385Z,75.27
2023-04-12T02:16:50.841Z,74.54
2023-04-12T02:19:20.338Z,74.55
2023-04-12T02:21:50.010Z,74.53
2023-04-12T02:24:18.985Z,75.89
2023-04-12T02:26:49.801Z,75.38
2023-04-12T02:29:19.951Z,75.87
2023-04-12T02:31:50.075Z,75.44
2023-04-12T02:34:19.510Z,75.47
2023-04-12T02:36:53.854Z,74.73
2023-04-12T02:39:23.509Z,74.69
2023-04-12T02:41:54.131Z,74.57
2023-04-12T02:44:24.490Z,75.42
2023-04-12T02:47:12.401Z,75.95
2023-04-12T02:49:43.539Z,75.52
2023-04-12T02:52:15.137Z,75.12
2023-04-12T02:54:59.566Z,74.62
2023-04-12T02:57:28.896Z,74.50
2023-04-12T03:00:00.211Z,74.42
2023-04-12T03:02:41.389Z,74.92
2023-04-12T03:05:17.750Z,74.58
2023-04-12T03:07:47.355Z,74.74
2023-04-12T03:10:18.781Z,74.59
2023-04-12T03:12:54.656Z,74.47
2023-04-12T03:15:24.944Z,74.63
2023-04-12T03:17:55.015Z,74.79
2023-04-12T03:20:29.880Z,74.54
2023-04-12T03:23:11.582Z,75.11
2023-04-12T03:25:46.773Z,74.61
2023-04-12T03:28:33.899Z,74.26
2023-04-12T03:31:07.319Z,74.27
2023-04-12T03:33:41.914Z,75.44
2023-04-12T03:36:21.730Z,75.71
2023-04-12T03:38:55.950Z,75.75
2023-04-12T03:41:25.209Z,76.28
2023-04-12T03:43:56.244Z,75.42
2023-04-12T03:46:26.847Z,75.31
2023-04-12T03:48:59.505Z,74.92
2023-04-12T03:51:30.769Z,75.13
2023-04-12T03:54:06.071Z,75.15
2023-04-12T03:56:46.358Z,75.20
2023-04-12T03:59:23.861Z,76.03
2023-04-12T04:02:38.580Z,76.36
2023-04-12T04:11:23.393Z,76.05
2023-04-12T04:14:02.332Z,75.84
2023-04-12T04:16:31.789Z,76.84
2023-04-12T04:19:04.270Z,77.88
2023-04-12T04:21:33.110Z,77.21
2023-04-12T04:24:04.237Z,77.33
2023-04-12T04:26:38.381Z,76.50
2023-04-12T04:29:18.404Z,75.85
2023-04-12T04:31:47.515Z,75.78
2023-04-12T04:34:19.793Z,76.75
2023-04-12T04:36:50.594Z,75.66
2023-04-12T04:39:27.480Z,75.43
2023-04-12T04:41:58.191Z,75.23
2023-04-12T04:44:40.475Z,77.11
2023-04-12T04:47:12.001Z,77.37
2023-04-12T04:49:43.394Z,77.42
2023-04-12T04:52:24.063Z,76.64
2023-04-12T04:54:57.907Z,76.19
2023-04-12T04:57:32.335Z,76.19
2023-04-12T05:00:11.125Z,77.04
2023-04-12T05:02:43.839Z,76.45
2023-04-12T05:05:23.516Z,76.21
2023-04-12T05:07:58.323Z,76.56
2023-04-12T05:10:30.611Z,77.01
2023-04-12T05:13:03.455Z,77.53
2023-04-12T05:15:33.608Z,77.54
2023-04-12T05:18:02.442Z,77.96
2023-04-12T05:20:33.721Z,78.09
2023-04-12T05:23:03.070Z,78.66
2023-04-12T05:25:33.187Z,77.97
2023-04-12T05:28:14.260Z,77.59
2023-04-12T05:30:44.069Z,77.49
2023-04-12T05:33:16.849Z,76.92
2023-04-12T05:35:49.728Z,76.81
2023-04-12T05:38:21.684Z,77.47
2023-04-12T05:40:55.420Z,77.25
2023-04-12T05:43:28.993Z,77.39
2023-04-12T05:46:00.828Z,77.97
2023-04-12T05:48:32.733Z,77.95
2023-04-12T05:51:06.249Z,77.73
2023-04-12T05:53:35.685Z,77.79
2023-04-12T05:56:08.068Z,77.44
2023-04-12T05:58:55.362Z,77.77
2023-04-12T06:01:32.346Z,77.76
2023-04-12T06:04:06.344Z,78.44
2023-04-12T06:06:36.966Z,78.64
2023-04-12T06:09:06.129Z,80.20
2023-04-12T06:11:34.962Z,79.83
2023-04-12T06:14:04.504Z,81.12
2023-04-12T06:16:33.545Z,80.74
2023-04-12T06:19:02.519Z,81.06
2023-04-12T06:21:31.340Z,80.42
2023-04-12T06:24:01.585Z,80.75
2023-04-12T06:26:39.028Z,80.85
2023-04-12T06:29:09.234Z,80.47
2023-04-12T06:31:38.584Z,81.33
2023-04-12T06:34:08.898Z,80.89
2023-04-12T06:36:41.592Z,81.96
2023-04-12T06:39:12.225Z,81.38
2023-04-12T06:41:43.616Z,81.99
2023-04-12T06:44:12.381Z,82.43
2023-04-12T06:46:41.251Z,82.28
2023-04-12T06:49:10.042Z,82.25
2023-04-12T06:51:39.032Z,82.13
2023-04-12T06:54:11.308Z,82.59
2023-04-12T06:56:41.112Z,83.21
2023-04-12T06:59:10.274Z,84.08
2023-04-12T07:01:40.395Z,83.82
2023-04-12T07:04:10.209Z,79.77
2023-04-12T07:06:39.139Z,81.29
2023-04-12T07:09:07.930Z,77.03
2023-04-12T07:11:38.094Z,75.00
2023-04-12T07:14:06.881Z,73.85
2023-04-12T07:16:35.669Z,71.51
2023-04-12T07:19:04.426Z,70.71
2023-04-12T07:21:33.207Z,70.97
2023-04-12T07:24:01.998Z,68.21
2023-04-12T07:26:31.457Z,70.37
2023-04-12T07:29:01.765Z,69.38
2023-04-12T07:31:31.599Z,69.30
2023-04-12T07:34:00.508Z,68.13
2023-04-12T07:36:29.287Z,66.59
2023-04-12T07:38:58.338Z,65.12
2023-04-12T07:41:27.218Z,64.13
2023-04-12T07:43:56.012Z,63.77
2023-04-12T07:46:26.320Z,62.62
2023-04-12T07:48:55.339Z,62.40
2023-04-12T07:51:24.296Z,61.71
2023-04-12T07:53:53.090Z,58.96
2023-04-12T07:56:21.885Z,58.25
2023-04-12T07:58:50.886Z,55.74
2023-04-12T08:01:19.656Z,58.26
2023-04-12T08:03:50.234Z,57.84
2023-04-12T08:06:19.121Z,56.63
2023-04-12T08:08:47.940Z,55.78
2023-04-12T08:11:16.762Z,56.53
2023-04-12T08:13:45.529Z,56.72
2023-04-12T08:16:14.285Z,55.92
2023-04-12T08:18:43.051Z,55.69
2023-04-12T08:21:13.203Z,55.06
2023-04-12T08:23:42.036Z,55.40
2023-04-12T08:26:11.079Z,53.71
2023-04-12T08:28:40.032Z,52.84
2023-04-12T08:31:09.499Z,54.82
2023-04-12T08:33:38.313Z,53.26
2023-04-12T08:36:08.420Z,51.06
2023-04-12T08:38:45.518Z,49.25
2023-04-12T08:41:15.559Z,49.02
2023-04-12T08:43:47.573Z,48.63
2023-04-12T08:46:18.369Z,50.10
2023-04-12T08:48:49.981Z,47.38
2023-04-12T08:51:21.330Z,47.92
2023-04-12T08:53:54.152Z,47.67
2023-04-12T08:56:25.161Z,48.74
2023-04-12T08:58:55.121Z,47.74
2023-04-12T09:01:23.951Z,47.14
2023-04-12T09:03:52.863Z,46.53
2023-04-12T09:06:22.051Z,45.63
2023-04-12T09:08:55.647Z,45.79
2023-04-12T09:11:27.211Z,47.90
2023-04-12T09:13:59.852Z,49.82
2023-04-12T09:16:37.846Z,47.46
2023-04-12T09:19:06.842Z,49.21
2023-04-12T09:21:37.129Z,50.63
2023-04-12T09:24:13.965Z,48.57
2023-04-12T09:26:43.807Z,47.68
2023-04-12T09:29:26.319Z,46.83
2023-04-12T09:32:02.653Z,46.21
2023-04-12T09:34:35.120Z,47.33
2023-04-12T09:37:14.891Z,47.47
2023-04-12T09:39:45.500Z,45.85
2023-04-12T09:42:32.391Z,43.85
2023-04-12T09:45:19.613Z,45.47
2023-04-12T09:47:48.917Z,44.95
2023-04-12T09:50:23.481Z,44.28
2023-04-12T09:52:52.761Z,44.99
2023-04-12T09:55:25.552Z,45.23
2023-04-12T09:57:56.637Z,45.97
2023-04-12T10:00:27.317Z,46.75
2023-04-12T10:02:58.029Z,46.32
2023-04-12T10:05:28.138Z,44.32
2023-04-12T10:08:02.089Z,45.61
2023-04-12T10:10:34.091Z,45.19
2023-04-12T10:13:03.560Z,43.07
2023-04-12T10:15:36.197Z,44.11
2023-04-12T10:18:11.499Z,45.71
2023-04-12T10:20:42.781Z,42.34
2023-04-12T10:23:16.422Z,42.21
2023-04-12T10:25:49.569Z,42.40
2023-04-12T10:28:21.815Z,42.83
2023-04-12T10:30:53.387Z,43.17
2023-04-12T10:33:28.162Z,41.92
2023-04-12T10:36:03.094Z,42.88
2023-04-12T10:38:45.878Z,39.67
2023-04-12T10:41:19.003Z,41.51
2023-04-12T10:43:48.725Z,40.29
2023-04-12T10:46:51.788Z,41.87
2023-04-12T10:49:21.169Z,39.84
2023-04-12T10:52:20.012Z,40.55
2023-04-12T10:54:48.864Z,41.18
2023-04-12T10:57:47.356Z,41.91
2023-04-12T11:00:17.767Z,41.36
2023-04-12T11:03:12.659Z,40.67
2023-04-12T11:06:20.033Z,41.31
2023-04-12T11:09:27.365Z,42.92
2023-04-12T11:12:13.668Z,43.04
2023-04-12T11:14:48.327Z,40.24
2023-04-12T11:17:26.120Z,41.63
2023-04-12T11:20:01.889Z,39.29
2023-04-12T11:22:33.863Z,38.53
2023-04-12T11:25:04.962Z,39.07
2023-04-12T11:27:34.611Z,35.97
2023-04-12T11:30:05.438Z,36.65
2023-04-12T11:32:41.536Z,35.25
2023-04-12T11:35:11.066Z,36.75
2023-04-12T11:37:40.779Z,37.21
2023-04-12T11:40:11.937Z,36.80
2023-04-12T11:42:42.087Z,36.97
2023-04-12T11:45:17.860Z,38.11
2023-04-12T11:47:48.229Z,37.20
2023-04-12T11:50:31.375Z,36.82
2023-04-12T11:53:13.218Z,35.61
2023-04-12T11:55:42.559Z,35.29
2023-04-12T11:58:11.333Z,36.55
2023-04-12T12:00:45.040Z,34.39
2023-04-12T12:03:14.418Z,36.82
2023-04-12T12:05:44.616Z,34.73
2023-04-12T12:08:14.692Z,35.91
2023-04-12T12:10:59.733Z,35.61
2023-04-12T12:13:46.996Z,35.38
2023-04-12T12:16:18.808Z,36.15
2023-04-12T12:18:52.541Z,36.19
2023-04-12T12:21:22.077Z,35.84
2023-04-12T12:23:51.531Z,34.57
2023-04-12T12:26:26.005Z,35.54
2023-04-12T12:28:57.410Z,34.89
2023-04-12T12:31:29.356Z,34.42
2023-04-12T12:34:01.122Z,33.18
2023-04-12T12:36:34.645Z,33.76
2023-04-12T12:39:10.680Z,35.82
2023-04-12T12:41:40.766Z,34.48
2023-04-12T12:44:11.408Z,34.18
2023-04-12T12:49:16.000Z,35.50
2023-04-12T12:51:45.741Z,34.83
2023-04-12T12:54:25.044Z,35.10
2023-04-12T12:57:05.951Z,34.75
2023-04-12T12:59:35.188Z,37.64
2023-04-12T13:02:07.908Z,36.74
2023-04-12T13:04:37.096Z,37.67
2023-04-12T13:07:06.076Z,34.24
2023-04-12T13:09:36.099Z,35.97
2023-04-12T13:12:05.428Z,36.40
2023-04-12T13:14:34.523Z,34.91
2023-04-12T13:17:08.923Z,34.73
2023-04-12T13:19:37.618Z,35.47
2023-04-12T13:22:07.429Z,36.77
2023-04-12T13:24:37.475Z,37.15
2023-04-12T13:27:06.426Z,35.99
2023-04-12T13:29:35.676Z,37.17
2023-04-12T13:32:04.958Z,36.98
2023-04-12T13:34:35.439Z,38.36
2023-04-12T13:37:04.251Z,37.00
2023-04-12T13:39:34.574Z,37.81
2023-04-12T13:42:05.773Z,38.23
2023-04-12T13:44:34.566Z,40.22
2023-04-12T13:47:03.501Z,40.12
2023-04-12T13:49:32.464Z,40.34
2023-04-12T13:52:04.572Z,39.16
2023-04-12T13:54:33.456Z,39.92
2023-04-12T13:57:04.151Z,40.11
2023-04-12T13:59:33.139Z,40.41
2023-04-12T14:02:02.976Z,39.68
2023-04-12T14:04:33.127Z,40.47
2023-04-12T14:07:03.397Z,40.78
2023-04-12T14:09:33.982Z,40.55
2023-04-12T14:12:03.058Z,41.09
2023-04-12T14:14:31.749Z,42.17
2023-04-12T14:17:02.107Z,45.19
2023-04-12T14:19:34.948Z,44.37
2023-04-12T14:22:05.336Z,43.78
2023-04-12T14:24:40.385Z,44.16
2023-04-12T14:27:15.377Z,45.87
2023-04-12T14:29:46.298Z,45.31
2023-04-12T14:32:16.285Z,45.54
2023-04-12T14:34:46.541Z,46.13
2023-04-12T14:37:16.850Z,48.16
2023-04-12T14:39:51.739Z,49.02
2023-04-12T14:42:26.206Z,49.82
2023-04-12T14:44:57.521Z,49.22
2023-04-12T14:47:27.914Z,50.16
2023-04-12T14:49:57.177Z,49.87
2023-04-12T14:52:32.533Z,50.91
2023-04-12T14:55:02.085Z,50.21
2023-04-12T14:57:30.916Z,50.28
2023-04-12T15:00:00.391Z,52.40
2023-04-12T15:02:29.708Z,54.07
2023-04-12T15:05:05.129Z,55.89
2023-04-12T15:07:37.117Z,56.20
2023-04-12T15:10:14.217Z,57.70
2023-04-12T15:12:43.495Z,57.96
2023-04-12T15:15:14.421Z,57.66
2023-04-12T15:17:48.956Z,58.59
2023-04-12T15:20:33.910Z,57.97
2023-04-12T15:23:13.435Z,56.93
2023-04-12T15:25:42.780Z,56.33
2023-04-12T15:28:12.103Z,56.49
2023-04-12T15:30:41.974Z,56.55
2023-04-12T15:33:13.010Z,56.23
2023-04-12T15:35:43.186Z,56.11
2023-04-12T15:38:15.591Z,56.92
2023-04-12T15:40:48.045Z,58.29
2023-04-12T15:43:16.955Z,60.04
2023-04-12T15:45:45.859Z,60.37
2023-04-12T15:48:21.009Z,60.51
2023-04-12T15:51:03.946Z,61.41
2023-04-12T15:54:00.174Z,61.86
2023-04-12T15:56:31.502Z,60.66
2023-04-12T15:59:01.246Z,61.59
2023-04-12T16:01:31.535Z,62.81
2023-04-12T16:04:00.633Z,61.94
2023-04-12T16:06:34.766Z,62.03
2023-04-12T16:09:06.853Z,62.47
2023-04-12T16:11:35.774Z,61.96
2023-04-12T16:14:04.543Z,62.03
2023-04-12T16:16:33.721Z,62.85
2023-04-12T16:19:02.843Z,62.55
2023-04-12T16:21:31.641Z,64.37
2023-04-12T16:24:00.856Z,63.47
2023-04-12T16:26:32.389Z,65.52
2023-04-12T16:29:02.142Z,64.13
2023-04-12T16:31:32.021Z,61.96
2023-04-12T16:34:01.346Z,63.83
2023-04-12T16:36:31.490Z,63.51
2023-04-12T16:39:03.539Z,63.66
2023-04-12T16:41:42.733Z,62.94
2023-04-12T16:44:42.854Z,63.88
2023-04-12T16:47:11.796Z,64.15
2023-04-12T16:51:01.390Z,64.27
2023-04-12T16:53:30.475Z,63.67
2023-04-12T16:56:09.989Z,64.21
2023-04-12T16:58:41.676Z,63.96
2023-04-12T17:01:19.367Z,63.95
2023-04-12T17:03:49.582Z,64.08
2023-04-12T17:06:19.588Z,64.49
2023-04-12T17:08:50.373Z,64.59
2023-04-12T17:11:19.302Z,64.64
2023-04-12T17:13:52.651Z,63.27
2023-04-12T17:16:22.563Z,63.94
2023-04-12T17:18:51.431Z,63.40
2023-04-12T17:21:22.553Z,62.41
2023-04-12T17:23:53.585Z,62.91
2023-04-12T17:26:26.463Z,62.84
2023-04-12T17:28:58.800Z,63.59
2023-04-12T17:31:29.015Z,63.33
2023-04-12T17:33:58.214Z,62.54
2023-04-12T17:36:32.671Z,62.80
2023-04-12T17:39:04.847Z,63.39
2023-04-12T17:41:33.782Z,64.59
2023-04-12T17:44:04.056Z,63.90
2023-04-12T17:46:34.840Z,64.96
2023-04-12T17:49:05.792Z,64.05
2023-04-12T17:51:35.310Z,63.48
2023-04-12T17:54:07.964Z,63.99
2023-04-12T17:56:37.020Z,64.54
2023-04-12T17:59:11.460Z,64.79
2023-04-12T18:01:41.922Z,64.01
2023-04-12T18:04:11.306Z,65.71
2023-04-12T18:06:42.029Z,65.12
2023-04-12T18:09:12.733Z,64.78
2023-04-12T18:11:43.455Z,63.63
2023-04-12T18:14:16.085Z,63.40
2023-04-12T18:16:45.996Z,63.72
2023-04-12T18:19:19.141Z,65.00
2023-04-12T18:21:49.551Z,66.11
2023-04-12T18:24:18.516Z,65.15
2023-04-12T18:26:49.601Z,65.84
2023-04-12T18:29:25.479Z,66.23
2023-04-12T18:32:16.448Z,66.71
2023-04-12T18:34:45.759Z,67.13
2023-04-12T18:37:14.668Z,67.83
2023-04-12T18:39:43.469Z,68.62
2023-04-12T18:42:17.337Z,68.35
2023-04-12T18:44:48.506Z,69.05
2023-04-12T18:47:17.749Z,68.51
2023-04-12T18:50:14.129Z,68.50
2023-04-12T18:52:42.997Z,68.17
2023-04-12T18:55:12.617Z,68.52
2023-04-12T18:57:41.564Z,68.57
2023-04-12T19:00:14.711Z,68.27
2023-04-12T19:02:43.887Z,68.67
2023-04-12T19:05:15.066Z,68.68
2023-04-12T19:07:45.012Z,69.50
2023-04-12T19:10:17.657Z,69.85
2023-04-12T19:12:47.755Z,69.96
2023-04-12T19:15:17.968Z,70.54
2023-04-12T19:17:49.510Z,70.54
2023-04-12T19:20:20.051Z,70.83
2023-04-12T19:22:54.905Z,70.22
2023-04-12T19:25:29.823Z,71.25
2023-04-12T19:28:26.937Z,72.14
2023-04-12T19:31:12.309Z,71.70
2023-04-12T19:33:42.661Z,71.67
2023-04-12T19:36:12.348Z,71.35
2023-04-12T19:38:44.392Z,71.44
2023-04-12T19:41:14.280Z,72.26
2023-04-12T19:43:44.181Z,72.63
2023-04-12T19:46:21.858Z,71.97
2023-04-12T19:48:54.912Z,72.43
2023-04-12T19:51:27.585Z,72.21
2023-04-12T19:53:59.529Z,71.83
2023-04-12T19:56:30.053Z,71.31
2023-04-12T19:59:00.477Z,71.73
2023-04-12T20:01:31.841Z,71.46
2023-04-12T20:04:06.003Z,71.53
2023-04-12T20:06:35.699Z,73.16
2023-04-12T20:09:08.265Z,72.96
2023-04-12T20:11:38.380Z,73.21
2023-04-12T20:14:09.857Z,72.94
2023-04-12T20:16:43.986Z,72.42
2023-04-12T20:19:13.582Z,72.68
2023-04-12T20:21:44.351Z,73.73
2023-04-12T20:24:13.827Z,73.83
2023-04-12T20:26:46.779Z,73.52
2023-04-12T20:29:17.808Z,73.46
2023-04-12T20:31:48.336Z,74.23
2023-04-12T20:34:17.758Z,73.95
2023-04-12T20:36:46.715Z,74.24
2023-04-12T20:39:15.421Z,74.38
2023-04-12T20:41:50.070Z,73.88
2023-04-12T20:44:20.586Z,74.05
2023-04-12T20:46:51.162Z,73.89
2023-04-12T20:49:20.673Z,73.89
2023-04-12T20:51:50.033Z,74.25
2023-04-12T20:54:19.907Z,75.16
2023-04-12T20:56:48.699Z,74.38
2023-04-12T20:59:17.589Z,74.56
2023-04-12T21:01:49.897Z,74.41
2023-04-12T21:04:20.270Z,75.32
2023-04-12T21:06:50.620Z,74.96
2023-04-12T21:09:19.491Z,75.14
2023-04-12T21:11:49.134Z,74.85
2023-04-12T21:14:18.272Z,75.78
2023-04-12T21:16:48.977Z,74.96
2023-04-12T21:19:19.739Z,75.05
2023-04-12T21:21:50.825Z,74.61
2023-04-12T21:24:20.274Z,75.83
2023-04-12T21:26:57.729Z,75.05
2023-04-12T21:29:26.952Z,75.51
2023-04-12T21:31:56.398Z,74.91
2023-04-12T21:34:26.854Z,75.90
2023-04-12T21:36:57.503Z,75.21
2023-04-12T21:39:27.201Z,75.03
2023-04-12T21:41:58.160Z,75.81
2023-04-12T21:44:27.447Z,75.52
2023-04-12T21:46:56.847Z,75.34
2023-04-12T21:49:30.226Z,75.49
2023-04-12T21:51:59.556Z,76.26
2023-04-12T21:54:31.447Z,76.05
2023-04-12T21:57:03.765Z,76.42
2023-04-12T21:59:33.299Z,76.51
2023-04-12T22:02:02.272Z,75.81
2023-04-12T22:04:33.134Z,75.93
2023-04-12T22:07:05.428Z,75.81
2023-04-12T22:09:36.015Z,77.33
2023-04-12T22:12:06.674Z,76.57
2023-04-12T22:14:36.682Z,76.45
2023-04-12T22:17:06.910Z,76.02
2023-04-12T22:19:37.571Z,76.40
2023-04-12T22:22:08.493Z,76.18
2023-04-12T22:24:38.820Z,76.33
2023-04-12T22:27:09.438Z,76.92
2023-04-12T22:29:38.960Z,77.03
2023-04-12T22:32:09.686Z,76.87
2023-04-12T22:34:40.504Z,76.85
2023-04-12T22:37:09.789Z,76.48
2023-04-12T22:39:40.298Z,76.79
2023-04-12T22:42:09.779Z,77.37
2023-04-12T22:44:39.373Z,78.47
2023-04-12T22:47:09.083Z,78.08
2023-04-12T22:49:50.582Z,77.84
2023-04-12T22:52:20.134Z,78.22
2023-04-12T22:54:50.091Z,77.84
2023-04-12T22:57:21.463Z,78.18
2023-04-12T22:59:50.512Z,77.90
2023-04-12T23:02:19.880Z,78.73
2023-04-12T23:04:50.571Z,77.81
2023-04-12T23:07:19.851Z,78.89
2023-04-12T23:09:52.808Z,78.42
2023-04-12T23:12:22.808Z,77.98
2023-04-12T23:14:55.720Z,78.09
2023-04-12T23:17:26.902Z,77.88
2023-04-12T23:19:58.316Z,78.21
2023-04-12T23:22:55.802Z,78.86
2023-04-12T23:25:38.134Z,78.60
2023-04-12T23:28:12.947Z,78.37
2023-04-12T23:30:47.954Z,78.25
2023-04-12T23:33:22.629Z,78.42
2023-04-12T23:35:56.052Z,78.21
2023-04-12T23:38:27.330Z,78.69
2023-04-12T23:40:56.628Z,79.45
2023-04-12T23:43:26.941Z,79.85
2023-04-12T23:45:57.329Z,79.59
2023-04-12T23:48:27.196Z,79.27
2023-04-12T23:50:57.386Z,78.73
2023-04-12T23:53:26.697Z,79.13
2023-04-12T23:55:55.663Z,78.81
2023-04-12T23:58:25.550Z,78.38
